Valdez Pioneer Field
PAVD : now visible

Aeroporto :











RITROVATECI SU...

 
LOGIN :

Iscrizione | Disclaimer

   EN    FR    IT 

 









Sommario :    VFR   VFR Marginale   IFR   IFR Intensivo   IFR Molto Intensivo
Visibilità : 
Base nubi : 
>= 8 km
>= 3000ft
5 / 8 km
1000 / 3000 ft
1500m / 5 km
500 / 1000 ft
800 / 1500m
200 / 500 ft
< 800m
< 200 ft
Simboli :   Temporali  Nebbia  Neve Forte  Precipitazioni Forti  Vento > 20 kt






- Altitudine del aeroporto : 121 ft
- Codice IATA : VDZ


PAVD - Valdez Pioneer Field

ULTIMO METAR :
  • 021212Z AUTO 05003KT 10SM SCT020 OVC044 07/06 A2971 RMK AO2

METARs OBSOLETI :
  • 021203Z AUTO 06003KT 10SM BKN020 OVC044 07/05 A2971 RMK AO2
  • 021056Z AUTO 08003KT 10SM OVC044 08/06 A2971 RMK AO2 SLP059 T00780056
  • 020956Z AUTO 00000KT 10SM OVC046 09/06 A2971 RMK AO2 SLP059 T00940061

TAF PAVD
Valido dal 02 a 12 ore il 03 a 12 ore UTC


021123Z 0212/0312 VRB04KT P6SM OVC040
FM030800 VRB04KT P6SM -RA OVC025 AMD LTD TO CLD VIS AND WIND
FIR PAZA / America del Nord



MetMap, La meteo Aeronautica in un colpo d'occhio ! - Copyright ORBIFLY Dicembre 2007 - Disclaimer

ORBIFLY MET'MAP TEAM :

Programmazione e sviluppo : Alexandra Zaïnal
Concezione : Baudouin d'Aumeries
Aiuto per la programmazione : Marc-Olivier Méhu
Supporto tecnico e logistico : Manuel Goepfert
Aiuto per la traduzione : Arnaldo La Scala

Contatto : metmap@orbifly.com




FONTI E CREDITI :

   NOAA       Earth
Advisory